sensor_id;sensor_type;location;lat;lon;timestamp;P1;durP1;ratioP1;P2;durP2;ratioP2
20639;SDS011;10479;53.524;9.846;2022-09-02T00:02:10;5.50;;;1.05;;
20639;SDS011;10479;53.524;9.846;2022-09-02T00:04:42;6.47;;;1.02;;
20639;SDS011;10479;53.524;9.846;2022-09-02T00:07:08;5.57;;;1.25;;
20639;SDS011;10479;53.524;9.846;2022-09-02T00:09:35;4.15;;;0.90;;
20639;SDS011;10479;53.524;9.846;2022-09-02T00:12:03;3.28;;;1.17;;
20639;SDS011;10479;53.524;9.846;2022-09-02T00:14:32;3.70;;;1.10;;
20639;SDS011;10479;53.524;9.846;2022-09-02T00:17:11;4.03;;;1.10;;
20639;SDS011;10479;53.524;9.846;2022-09-02T00:19:38;2.47;;;1.15;;
20639;SDS011;10479;53.524;9.846;2022-09-02T00:22:22;6.60;;;1.05;;
20639;SDS011;10479;53.524;9.846;2022-09-02T00:24:50;2.17;;;0.88;;
20639;SDS011;10479;53.524;9.846;2022-09-02T00:27:35;6.30;;;1.27;;
20639;SDS011;10479;53.524;9.846;2022-09-02T00:30:03;2.35;;;1.20;;
20639;SDS011;10479;53.524;9.846;2022-09-02T00:32:49;2.95;;;1.20;;
20639;SDS011;10479;53.524;9.846;2022-09-02T00:35:16;3.47;;;1.40;;
20639;SDS011;10479;53.524;9.846;2022-09-02T00:37:45;4.72;;;1.38;;
20639;SDS011;10479;53.524;9.846;2022-09-02T00:40:18;8.73;;;1.23;;
20639;SDS011;10479;53.524;9.846;2022-09-02T00:42:45;3.38;;;1.13;;
20639;SDS011;10479;53.524;9.846;2022-09-02T00:45:15;4.57;;;1.45;;
20639;SDS011;10479;53.524;9.846;2022-09-02T00:47:43;2.95;;;1.20;;
20639;SDS011;10479;53.524;9.846;2022-09-02T00:50:26;4.82;;;1.50;;
20639;SDS011;10479;53.524;9.846;2022-09-02T00:52:54;4.68;;;1.40;;
20639;SDS011;10479;53.524;9.846;2022-09-02T00:55:25;2.65;;;1.10;;
20639;SDS011;10479;53.524;9.846;2022-09-02T00:58:17;3.97;;;1.20;;
20639;SDS011;10479;53.524;9.846;2022-09-02T01:00:51;3.35;;;1.17;;
20639;SDS011;10479;53.524;9.846;2022-09-02T01:03:24;3.55;;;1.25;;
20639;SDS011;10479;53.524;9.846;2022-09-02T01:05:52;5.43;;;1.20;;
20639;SDS011;10479;53.524;9.846;2022-09-02T01:08:38;3.78;;;1.10;;
20639;SDS011;10479;53.524;9.846;2022-09-02T01:11:07;3.13;;;1.35;;
20639;SDS011;10479;53.524;9.846;2022-09-02T01:13:42;3.67;;;1.42;;
20639;SDS011;10479;53.524;9.846;2022-09-02T01:16:22;3.50;;;1.15;;
20639;SDS011;10479;53.524;9.846;2022-09-02T01:18:52;3.72;;;1.13;;
20639;SDS011;10479;53.524;9.846;2022-09-02T01:21:22;4.95;;;1.60;;
20639;SDS011;10479;53.524;9.846;2022-09-02T01:23:54;3.93;;;1.20;;
20639;SDS011;10479;53.524;9.846;2022-09-02T01:26:39;3.90;;;1.20;;
20639;SDS011;10479;53.524;9.846;2022-09-02T01:29:06;4.82;;;1.00;;
20639;SDS011;10479;53.524;9.846;2022-09-02T01:31:50;3.78;;;0.95;;
20639;SDS011;10479;53.524;9.846;2022-09-02T01:34:21;5.93;;;1.30;;
20639;SDS011;10479;53.524;9.846;2022-09-02T01:36:55;3.10;;;1.05;;
20639;SDS011;10479;53.524;9.846;2022-09-02T01:39:22;3.65;;;1.35;;
20639;SDS011;10479;53.524;9.846;2022-09-02T01:41:53;3.47;;;1.10;;
20639;SDS011;10479;53.524;9.846;2022-09-02T01:44:19;3.90;;;1.20;;
20639;SDS011;10479;53.524;9.846;2022-09-02T01:46:48;2.33;;;1.00;;
20639;SDS011;10479;53.524;9.846;2022-09-02T01:49:19;4.78;;;1.10;;
20639;SDS011;10479;53.524;9.846;2022-09-02T01:51:57;2.53;;;1.00;;
20639;SDS011;10479;53.524;9.846;2022-09-02T01:54:26;4.38;;;1.50;;
20639;SDS011;10479;53.524;9.846;2022-09-02T01:57:11;4.53;;;1.33;;
20639;SDS011;10479;53.524;9.846;2022-09-02T01:59:38;6.70;;;1.38;;
20639;SDS011;10479;53.524;9.846;2022-09-02T02:02:04;5.43;;;1.20;;
20639;SDS011;10479;53.524;9.846;2022-09-02T02:04:37;3.83;;;1.30;;
20639;SDS011;10479;53.524;9.846;2022-09-02T02:07:20;3.28;;;1.20;;
20639;SDS011;10479;53.524;9.846;2022-09-02T02:09:49;6.15;;;1.17;;
20639;SDS011;10479;53.524;9.846;2022-09-02T02:12:15;3.22;;;1.40;;
20639;SDS011;10479;53.524;9.846;2022-09-02T02:14:46;3.20;;;1.30;;
20639;SDS011;10479;53.524;9.846;2022-09-02T02:17:12;3.00;;;1.13;;
20639;SDS011;10479;53.524;9.846;2022-09-02T02:19:43;2.75;;;1.00;;
20639;SDS011;10479;53.524;9.846;2022-09-02T02:22:09;6.15;;;1.23;;
20639;SDS011;10479;53.524;9.846;2022-09-02T02:24:55;4.30;;;1.25;;
20639;SDS011;10479;53.524;9.846;2022-09-02T02:27:22;3.63;;;1.27;;
20639;SDS011;10479;53.524;9.846;2022-09-02T02:29:48;2.50;;;1.25;;
20639;SDS011;10479;53.524;9.846;2022-09-02T02:32:18;3.05;;;1.20;;
20639;SDS011;10479;53.524;9.846;2022-09-02T02:35:04;3.75;;;1.10;;
20639;SDS011;10479;53.524;9.846;2022-09-02T02:37:31;4.97;;;1.30;;
20639;SDS011;10479;53.524;9.846;2022-09-02T02:39:58;3.63;;;1.20;;
20639;SDS011;10479;53.524;9.846;2022-09-02T02:42:27;2.95;;;1.10;;
20639;SDS011;10479;53.524;9.846;2022-09-02T02:44:56;3.92;;;1.17;;
20639;SDS011;10479;53.524;9.846;2022-09-02T02:47:33;2.10;;;0.95;;
20639;SDS011;10479;53.524;9.846;2022-09-02T02:50:03;4.60;;;1.23;;
20639;SDS011;10479;53.524;9.846;2022-09-02T02:52:48;4.60;;;1.70;;
20639;SDS011;10479;53.524;9.846;2022-09-02T02:55:23;6.60;;;1.23;;
20639;SDS011;10479;53.524;9.846;2022-09-02T02:57:55;4.57;;;1.20;;
20639;SDS011;10479;53.524;9.846;2022-09-02T03:00:28;4.65;;;1.42;;
20639;SDS011;10479;53.524;9.846;2022-09-02T03:03:05;4.25;;;1.10;;
20639;SDS011;10479;53.524;9.846;2022-09-02T03:05:46;4.88;;;1.30;;
20639;SDS011;10479;53.524;9.846;2022-09-02T03:08:32;8.73;;;1.60;;
20639;SDS011;10479;53.524;9.846;2022-09-02T03:11:03;1.92;;;0.80;;
20639;SDS011;10479;53.524;9.846;2022-09-02T03:13:47;5.22;;;1.30;;
20639;SDS011;10479;53.524;9.846;2022-09-02T03:16:24;2.67;;;1.10;;
20639;SDS011;10479;53.524;9.846;2022-09-02T03:18:51;3.53;;;1.35;;
20639;SDS011;10479;53.524;9.846;2022-09-02T03:21:20;4.28;;;1.55;;
20639;SDS011;10479;53.524;9.846;2022-09-02T03:23:58;4.93;;;1.52;;
20639;SDS011;10479;53.524;9.846;2022-09-02T03:26:24;4.95;;;1.23;;
20639;SDS011;10479;53.524;9.846;2022-09-02T03:28:56;4.50;;;1.20;;
20639;SDS011;10479;53.524;9.846;2022-09-02T03:31:26;4.70;;;1.50;;
20639;SDS011;10479;53.524;9.846;2022-09-02T03:34:12;3.28;;;1.70;;
20639;SDS011;10479;53.524;9.846;2022-09-02T03:36:41;6.15;;;1.75;;
20639;SDS011;10479;53.524;9.846;2022-09-02T03:39:14;5.00;;;1.40;;
20639;SDS011;10479;53.524;9.846;2022-09-02T03:41:46;3.88;;;1.48;;
20639;SDS011;10479;53.524;9.846;2022-09-02T03:44:14;4.88;;;1.50;;
20639;SDS011;10479;53.524;9.846;2022-09-02T03:46:48;6.82;;;1.70;;
20639;SDS011;10479;53.524;9.846;2022-09-02T03:49:14;3.40;;;1.65;;
20639;SDS011;10479;53.524;9.846;2022-09-02T03:51:41;4.78;;;2.00;;
20639;SDS011;10479;53.524;9.846;2022-09-02T03:54:09;7.05;;;2.10;;
20639;SDS011;10479;53.524;9.846;2022-09-02T03:56:40;3.90;;;1.77;;
20639;SDS011;10479;53.524;9.846;2022-09-02T03:59:26;5.90;;;1.60;;
20639;SDS011;10479;53.524;9.846;2022-09-02T04:01:51;5.43;;;1.50;;
20639;SDS011;10479;53.524;9.846;2022-09-02T04:04:31;5.93;;;1.88;;
20639;SDS011;10479;53.524;9.846;2022-09-02T04:06:57;5.22;;;1.55;;
20639;SDS011;10479;53.524;9.846;2022-09-02T04:09:23;3.95;;;1.83;;
20639;SDS011;10479;53.524;9.846;2022-09-02T04:12:02;4.38;;;1.73;;
20639;SDS011;10479;53.524;9.846;2022-09-02T04:14:28;3.75;;;1.98;;
20639;SDS011;10479;53.524;9.846;2022-09-02T04:16:58;8.88;;;1.98;;
20639;SDS011;10479;53.524;9.846;2022-09-02T04:19:32;6.78;;;2.10;;
20639;SDS011;10479;53.524;9.846;2022-09-02T04:21:58;6.97;;;1.88;;
20639;SDS011;10479;53.524;9.846;2022-09-02T04:24:26;4.85;;;1.60;;
20639;SDS011;10479;53.524;9.846;2022-09-02T04:27:05;5.97;;;1.70;;
20639;SDS011;10479;53.524;9.846;2022-09-02T04:29:36;5.03;;;2.28;;
20639;SDS011;10479;53.524;9.846;2022-09-02T04:32:09;4.55;;;2.00;;
20639;SDS011;10479;53.524;9.846;2022-09-02T04:34:42;7.03;;;2.25;;
20639;SDS011;10479;53.524;9.846;2022-09-02T04:37:14;5.53;;;1.77;;
20639;SDS011;10479;53.524;9.846;2022-09-02T04:39:48;7.25;;;2.20;;
20639;SDS011;10479;53.524;9.846;2022-09-02T04:42:14;8.20;;;2.17;;
20639;SDS011;10479;53.524;9.846;2022-09-02T04:44:40;4.32;;;1.90;;
20639;SDS011;10479;53.524;9.846;2022-09-02T04:47:08;5.45;;;1.90;;
20639;SDS011;10479;53.524;9.846;2022-09-02T04:49:36;5.03;;;2.05;;
20639;SDS011;10479;53.524;9.846;2022-09-02T04:52:10;5.10;;;2.10;;
20639;SDS011;10479;53.524;9.846;2022-09-02T04:54:51;6.32;;;2.30;;
20639;SDS011;10479;53.524;9.846;2022-09-02T04:57:19;5.65;;;2.05;;
20639;SDS011;10479;53.524;9.846;2022-09-02T04:59:49;5.60;;;2.28;;
20639;SDS011;10479;53.524;9.846;2022-09-02T05:02:18;7.55;;;2.03;;
20639;SDS011;10479;53.524;9.846;2022-09-02T05:05:04;7.85;;;2.42;;
20639;SDS011;10479;53.524;9.846;2022-09-02T05:07:30;6.70;;;2.05;;
20639;SDS011;10479;53.524;9.846;2022-09-02T05:09:57;9.10;;;2.75;;
20639;SDS011;10479;53.524;9.846;2022-09-02T05:12:24;6.78;;;2.42;;
20639;SDS011;10479;53.524;9.846;2022-09-02T05:14:54;4.00;;;2.20;;
20639;SDS011;10479;53.524;9.846;2022-09-02T05:17:34;8.15;;;2.30;;
20639;SDS011;10479;53.524;9.846;2022-09-02T05:20:07;5.45;;;2.50;;
20639;SDS011;10479;53.524;9.846;2022-09-02T05:22:44;4.25;;;1.77;;
20639;SDS011;10479;53.524;9.846;2022-09-02T05:25:14;10.52;;;2.10;;
20639;SDS011;10479;53.524;9.846;2022-09-02T05:27:42;4.05;;;1.80;;
20639;SDS011;10479;53.524;9.846;2022-09-02T05:30:17;6.60;;;1.88;;
20639;SDS011;10479;53.524;9.846;2022-09-02T05:32:48;4.80;;;1.75;;
20639;SDS011;10479;53.524;9.846;2022-09-02T05:35:37;5.13;;;1.80;;
20639;SDS011;10479;53.524;9.846;2022-09-02T05:38:04;3.53;;;1.65;;
20639;SDS011;10479;53.524;9.846;2022-09-02T05:40:29;5.25;;;1.70;;
20639;SDS011;10479;53.524;9.846;2022-09-02T05:42:59;3.45;;;1.45;;
20639;SDS011;10479;53.524;9.846;2022-09-02T05:45:25;4.85;;;1.45;;
20639;SDS011;10479;53.524;9.846;2022-09-02T05:47:50;4.63;;;1.50;;
20639;SDS011;10479;53.524;9.846;2022-09-02T05:50:16;6.28;;;1.52;;
20639;SDS011;10479;53.524;9.846;2022-09-02T05:52:42;7.30;;;1.40;;
20639;SDS011;10479;53.524;9.846;2022-09-02T05:55:07;5.13;;;1.60;;
20639;SDS011;10479;53.524;9.846;2022-09-02T05:57:33;6.93;;;1.80;;
20639;SDS011;10479;53.524;9.846;2022-09-02T06:00:09;3.83;;;1.85;;
20639;SDS011;10479;53.524;9.846;2022-09-02T06:02:35;5.38;;;1.45;;
20639;SDS011;10479;53.524;9.846;2022-09-02T06:05:01;5.03;;;1.40;;
20639;SDS011;10479;53.524;9.846;2022-09-02T06:07:26;4.78;;;1.40;;
20639;SDS011;10479;53.524;9.846;2022-09-02T06:09:58;3.80;;;1.48;;
20639;SDS011;10479;53.524;9.846;2022-09-02T06:12:33;2.80;;;1.40;;
20639;SDS011;10479;53.524;9.846;2022-09-02T06:15:03;3.40;;;1.50;;
20639;SDS011;10479;53.524;9.846;2022-09-02T06:17:29;5.90;;;1.23;;
20639;SDS011;10479;53.524;9.846;2022-09-02T06:19:56;6.57;;;1.50;;
20639;SDS011;10479;53.524;9.846;2022-09-02T06:22:21;8.82;;;1.70;;
20639;SDS011;10479;53.524;9.846;2022-09-02T06:24:49;4.40;;;1.35;;
20639;SDS011;10479;53.524;9.846;2022-09-02T06:27:19;6.60;;;1.40;;
20639;SDS011;10479;53.524;9.846;2022-09-02T06:29:54;3.78;;;1.38;;
20639;SDS011;10479;53.524;9.846;2022-09-02T06:32:20;5.95;;;1.23;;
20639;SDS011;10479;53.524;9.846;2022-09-02T06:34:51;8.27;;;1.65;;
20639;SDS011;10479;53.524;9.846;2022-09-02T06:37:25;6.82;;;1.70;;
20639;SDS011;10479;53.524;9.846;2022-09-02T06:39:56;4.07;;;1.30;;
20639;SDS011;10479;53.524;9.846;2022-09-02T06:42:22;4.40;;;1.20;;
20639;SDS011;10479;53.524;9.846;2022-09-02T06:44:49;3.72;;;1.40;;
20639;SDS011;10479;53.524;9.846;2022-09-02T06:47:24;7.10;;;1.40;;
20639;SDS011;10479;53.524;9.846;2022-09-02T06:49:51;3.67;;;1.20;;
20639;SDS011;10479;53.524;9.846;2022-09-02T06:52:27;8.13;;;1.40;;
20639;SDS011;10479;53.524;9.846;2022-09-02T06:54:53;3.05;;;1.25;;
20639;SDS011;10479;53.524;9.846;2022-09-02T06:57:19;5.03;;;1.20;;
20639;SDS011;10479;53.524;9.846;2022-09-02T06:59:50;4.28;;;1.40;;
20639;SDS011;10479;53.524;9.846;2022-09-02T07:02:15;8.35;;;1.85;;
20639;SDS011;10479;53.524;9.846;2022-09-02T07:04:42;5.63;;;1.52;;
20639;SDS011;10479;53.524;9.846;2022-09-02T07:07:30;5.78;;;1.77;;
20639;SDS011;10479;53.524;9.846;2022-09-02T07:09:57;5.57;;;1.52;;
20639;SDS011;10479;53.524;9.846;2022-09-02T07:12:23;3.20;;;1.27;;
20639;SDS011;10479;53.524;9.846;2022-09-02T07:14:51;3.83;;;1.65;;
20639;SDS011;10479;53.524;9.846;2022-09-02T07:17:17;4.45;;;1.55;;
20639;SDS011;10479;53.524;9.846;2022-09-02T07:19:46;6.05;;;1.35;;
20639;SDS011;10479;53.524;9.846;2022-09-02T07:22:12;4.20;;;1.30;;
20639;SDS011;10479;53.524;9.846;2022-09-02T07:24:37;6.63;;;1.25;;
20639;SDS011;10479;53.524;9.846;2022-09-02T07:27:09;5.13;;;1.40;;
20639;SDS011;10479;53.524;9.846;2022-09-02T07:29:45;5.68;;;1.25;;
20639;SDS011;10479;53.524;9.846;2022-09-02T07:32:13;3.28;;;1.23;;
20639;SDS011;10479;53.524;9.846;2022-09-02T07:34:40;3.72;;;0.98;;
20639;SDS011;10479;53.524;9.846;2022-09-02T07:37:06;5.68;;;1.15;;
20639;SDS011;10479;53.524;9.846;2022-09-02T07:39:37;2.72;;;0.93;;
20639;SDS011;10479;53.524;9.846;2022-09-02T07:42:06;4.93;;;1.13;;
20639;SDS011;10479;53.524;9.846;2022-09-02T07:44:41;3.30;;;1.08;;
20639;SDS011;10479;53.524;9.846;2022-09-02T07:47:13;4.35;;;1.05;;
20639;SDS011;10479;53.524;9.846;2022-09-02T07:49:45;2.58;;;0.90;;
20639;SDS011;10479;53.524;9.846;2022-09-02T07:52:11;3.72;;;1.25;;
20639;SDS011;10479;53.524;9.846;2022-09-02T07:54:41;2.50;;;1.00;;
20639;SDS011;10479;53.524;9.846;2022-09-02T07:57:11;7.95;;;0.98;;
20639;SDS011;10479;53.524;9.846;2022-09-02T07:59:42;3.67;;;0.98;;
20639;SDS011;10479;53.524;9.846;2022-09-02T08:02:14;4.03;;;1.00;;
20639;SDS011;10479;53.524;9.846;2022-09-02T08:04:46;2.95;;;0.80;;
20639;SDS011;10479;53.524;9.846;2022-09-02T08:07:13;4.93;;;1.17;;
20639;SDS011;10479;53.524;9.846;2022-09-02T08:09:51;2.67;;;0.90;;
20639;SDS011;10479;53.524;9.846;2022-09-02T08:12:17;2.60;;;0.90;;
20639;SDS011;10479;53.524;9.846;2022-09-02T08:14:44;2.88;;;0.90;;
20639;SDS011;10479;53.524;9.846;2022-09-02T08:17:09;8.60;;;0.90;;
20639;SDS011;10479;53.524;9.846;2022-09-02T08:19:37;2.65;;;0.80;;
20639;SDS011;10479;53.524;9.846;2022-09-02T08:22:11;1.45;;;0.57;;
20639;SDS011;10479;53.524;9.846;2022-09-02T08:24:40;5.78;;;0.90;;
20639;SDS011;10479;53.524;9.846;2022-09-02T08:27:14;2.05;;;0.80;;
20639;SDS011;10479;53.524;9.846;2022-09-02T08:29:39;2.03;;;0.82;;
20639;SDS011;10479;53.524;9.846;2022-09-02T08:32:11;5.95;;;0.80;;
20639;SDS011;10479;53.524;9.846;2022-09-02T08:34:37;5.10;;;0.82;;
20639;SDS011;10479;53.524;9.846;2022-09-02T08:37:09;4.57;;;0.75;;
20639;SDS011;10479;53.524;9.846;2022-09-02T08:39:46;4.35;;;0.85;;
20639;SDS011;10479;53.524;9.846;2022-09-02T08:42:23;3.65;;;0.82;;
20639;SDS011;10479;53.524;9.846;2022-09-02T08:44:55;2.70;;;0.85;;
20639;SDS011;10479;53.524;9.846;2022-09-02T08:47:24;4.82;;;0.88;;
20639;SDS011;10479;53.524;9.846;2022-09-02T08:49:54;2.45;;;0.75;;
20639;SDS011;10479;53.524;9.846;2022-09-02T08:55:29;3.47;;;0.63;;
20639;SDS011;10479;53.524;9.846;2022-09-02T08:57:59;3.97;;;0.80;;
20639;SDS011;10479;53.524;9.846;2022-09-02T09:00:29;1.77;;;0.85;;
20639;SDS011;10479;53.524;9.846;2022-09-02T09:03:07;1.60;;;0.80;;
20639;SDS011;10479;53.524;9.846;2022-09-02T09:05:58;4.40;;;0.82;;
20639;SDS011;10479;53.524;9.846;2022-09-02T09:19:11;4.68;;;0.70;;
20639;SDS011;10479;53.524;9.846;2022-09-02T09:21:42;2.33;;;1.00;;
20639;SDS011;10479;53.524;9.846;2022-09-02T09:24:26;5.80;;;1.00;;
20639;SDS011;10479;53.524;9.846;2022-09-02T09:27:02;2.13;;;0.68;;
20639;SDS011;10479;53.524;9.846;2022-09-02T09:29:40;2.45;;;0.68;;
20639;SDS011;10479;53.524;9.846;2022-09-02T09:40:35;6.15;;;1.02;;
20639;SDS011;10479;53.524;9.846;2022-09-02T09:50:45;2.15;;;0.65;;
20639;SDS011;10479;53.524;9.846;2022-09-02T09:53:13;1.98;;;0.70;;
20639;SDS011;10479;53.524;9.846;2022-09-02T09:58:30;2.17;;;0.90;;
20639;SDS011;10479;53.524;9.846;2022-09-02T10:01:15;4.55;;;1.00;;
20639;SDS011;10479;53.524;9.846;2022-09-02T10:03:50;5.53;;;1.20;;
20639;SDS011;10479;53.524;9.846;2022-09-02T10:08:58;3.60;;;0.95;;
20639;SDS011;10479;53.524;9.846;2022-09-02T10:11:33;5.50;;;0.88;;
20639;SDS011;10479;53.524;9.846;2022-09-02T10:14:01;2.90;;;0.95;;
20639;SDS011;10479;53.524;9.846;2022-09-02T10:19:36;2.88;;;0.88;;
20639;SDS011;10479;53.524;9.846;2022-09-02T10:38:54;3.80;;;0.88;;
20639;SDS011;10479;53.524;9.846;2022-09-02T10:44:01;1.30;;;0.70;;
20639;SDS011;10479;53.524;9.846;2022-09-02T10:49:34;2.95;;;0.88;;
20639;SDS011;10479;53.524;9.846;2022-09-02T10:52:12;4.53;;;0.70;;
20639;SDS011;10479;53.524;9.846;2022-09-02T10:57:28;2.72;;;0.70;;
20639;SDS011;10479;53.524;9.846;2022-09-02T11:00:04;3.05;;;0.85;;
20639;SDS011;10479;53.524;9.846;2022-09-02T11:05:22;2.15;;;0.68;;
20639;SDS011;10479;53.524;9.846;2022-09-02T11:20:47;2.42;;;0.80;;
20639;SDS011;10479;53.524;9.846;2022-09-02T11:23:37;1.45;;;0.50;;
20639;SDS011;10479;53.524;9.846;2022-09-02T11:29:16;2.40;;;0.88;;
20639;SDS011;10479;53.524;9.846;2022-09-02T11:34:45;1.85;;;0.80;;
20639;SDS011;10479;53.524;9.846;2022-09-02T11:37:22;2.70;;;0.63;;
20639;SDS011;10479;53.524;9.846;2022-09-02T11:39:57;1.95;;;0.60;;
20639;SDS011;10479;53.524;9.846;2022-09-02T11:42:46;4.18;;;0.80;;
20639;SDS011;10479;53.524;9.846;2022-09-02T11:54:46;3.30;;;0.80;;
20639;SDS011;10479;53.524;9.846;2022-09-02T11:57:20;1.38;;;0.60;;
20639;SDS011;10479;53.524;9.846;2022-09-02T12:21:31;2.17;;;0.65;;
20639;SDS011;10479;53.524;9.846;2022-09-02T12:31:51;4.82;;;0.73;;
20639;SDS011;10479;53.524;9.846;2022-09-02T12:36:51;1.20;;;0.50;;
20639;SDS011;10479;53.524;9.846;2022-09-02T12:44:45;4.40;;;1.02;;
20639;SDS011;10479;53.524;9.846;2022-09-02T12:52:48;4.53;;;0.80;;
20639;SDS011;10479;53.524;9.846;2022-09-02T12:55:25;3.17;;;0.80;;
20639;SDS011;10479;53.524;9.846;2022-09-02T12:58:08;2.63;;;0.82;;
20639;SDS011;10479;53.524;9.846;2022-09-02T13:00:45;3.33;;;0.70;;
20639;SDS011;10479;53.524;9.846;2022-09-02T13:15:33;2.72;;;0.70;;
20639;SDS011;10479;53.524;9.846;2022-09-02T13:32:19;3.97;;;1.05;;
20639;SDS011;10479;53.524;9.846;2022-09-02T13:34:55;2.13;;;0.60;;
20639;SDS011;10479;53.524;9.846;2022-09-02T13:37:33;5.38;;;1.00;;
20639;SDS011;10479;53.524;9.846;2022-09-02T13:40:16;2.58;;;0.70;;
20639;SDS011;10479;53.524;9.846;2022-09-02T13:42:51;1.92;;;0.60;;
20639;SDS011;10479;53.524;9.846;2022-09-02T13:45:24;4.53;;;0.80;;
20639;SDS011;10479;53.524;9.846;2022-09-02T13:47:59;2.78;;;0.65;;
20639;SDS011;10479;53.524;9.846;2022-09-02T13:50:29;2.05;;;0.70;;
20639;SDS011;10479;53.524;9.846;2022-09-02T13:52:59;3.50;;;1.33;;
20639;SDS011;10479;53.524;9.846;2022-09-02T13:55:31;4.68;;;0.80;;
20639;SDS011;10479;53.524;9.846;2022-09-02T14:00:32;5.15;;;0.90;;
20639;SDS011;10479;53.524;9.846;2022-09-02T14:03:18;2.38;;;0.77;;
20639;SDS011;10479;53.524;9.846;2022-09-02T14:05:46;1.40;;;0.70;;
20639;SDS011;10479;53.524;9.846;2022-09-02T14:08:14;2.75;;;0.90;;
20639;SDS011;10479;53.524;9.846;2022-09-02T14:10:42;2.40;;;0.95;;
20639;SDS011;10479;53.524;9.846;2022-09-02T14:13:18;1.20;;;0.60;;
20639;SDS011;10479;53.524;9.846;2022-09-02T14:15:44;3.92;;;0.70;;
20639;SDS011;10479;53.524;9.846;2022-09-02T14:18:14;3.97;;;0.90;;
20639;SDS011;10479;53.524;9.846;2022-09-02T14:20:58;3.03;;;0.80;;
20639;SDS011;10479;53.524;9.846;2022-09-02T14:26:01;1.58;;;0.77;;
20639;SDS011;10479;53.524;9.846;2022-09-02T14:28:36;3.50;;;0.73;;
20639;SDS011;10479;53.524;9.846;2022-09-02T14:31:06;3.78;;;0.77;;
20639;SDS011;10479;53.524;9.846;2022-09-02T14:33:42;2.33;;;0.90;;
20639;SDS011;10479;53.524;9.846;2022-09-02T14:43:52;3.55;;;0.73;;
20639;SDS011;10479;53.524;9.846;2022-09-02T14:46:27;3.13;;;0.80;;
20639;SDS011;10479;53.524;9.846;2022-09-02T14:48:59;1.60;;;0.70;;
20639;SDS011;10479;53.524;9.846;2022-09-02T14:51:38;2.20;;;0.80;;
20639;SDS011;10479;53.524;9.846;2022-09-02T14:57:04;2.65;;;0.90;;
20639;SDS011;10479;53.524;9.846;2022-09-02T14:59:34;3.50;;;0.90;;
20639;SDS011;10479;53.524;9.846;2022-09-02T15:02:02;1.48;;;0.70;;
20639;SDS011;10479;53.524;9.846;2022-09-02T15:04:35;3.72;;;0.80;;
20639;SDS011;10479;53.524;9.846;2022-09-02T15:07:01;2.97;;;0.80;;
20639;SDS011;10479;53.524;9.846;2022-09-02T15:09:28;1.95;;;0.70;;
20639;SDS011;10479;53.524;9.846;2022-09-02T15:11:58;2.90;;;0.80;;
20639;SDS011;10479;53.524;9.846;2022-09-02T15:14:25;2.67;;;0.90;;
20639;SDS011;10479;53.524;9.846;2022-09-02T15:17:01;3.15;;;0.80;;
20639;SDS011;10479;53.524;9.846;2022-09-02T15:19:33;4.65;;;1.10;;
20639;SDS011;10479;53.524;9.846;2022-09-02T15:21:59;1.90;;;0.80;;
20639;SDS011;10479;53.524;9.846;2022-09-02T15:24:26;2.17;;;0.82;;
20639;SDS011;10479;53.524;9.846;2022-09-02T15:26:58;3.17;;;0.80;;
20639;SDS011;10479;53.524;9.846;2022-09-02T15:29:24;3.83;;;0.90;;
20639;SDS011;10479;53.524;9.846;2022-09-02T15:31:58;4.53;;;1.15;;
20639;SDS011;10479;53.524;9.846;2022-09-02T15:34:24;2.35;;;0.80;;
20639;SDS011;10479;53.524;9.846;2022-09-02T15:36:54;4.07;;;0.90;;
20639;SDS011;10479;53.524;9.846;2022-09-02T15:39:22;2.65;;;0.93;;
20639;SDS011;10479;53.524;9.846;2022-09-02T15:41:53;2.97;;;0.80;;
20639;SDS011;10479;53.524;9.846;2022-09-02T15:44:22;2.25;;;0.60;;
20639;SDS011;10479;53.524;9.846;2022-09-02T15:47:01;3.27;;;0.87;;
20639;SDS011;10479;53.524;9.846;2022-09-02T15:49:34;4.20;;;0.90;;
20639;SDS011;10479;53.524;9.846;2022-09-02T15:52:01;3.50;;;0.80;;
20639;SDS011;10479;53.524;9.846;2022-09-02T15:54:32;4.32;;;0.98;;
20639;SDS011;10479;53.524;9.846;2022-09-02T15:57:00;4.57;;;0.88;;
20639;SDS011;10479;53.524;9.846;2022-09-02T15:59:25;4.40;;;1.10;;
20639;SDS011;10479;53.524;9.846;2022-09-02T16:01:53;4.75;;;0.82;;
20639;SDS011;10479;53.524;9.846;2022-09-02T16:04:25;2.05;;;1.00;;
20639;SDS011;10479;53.524;9.846;2022-09-02T16:06:54;4.00;;;0.80;;
20639;SDS011;10479;53.524;9.846;2022-09-02T16:09:38;4.53;;;0.90;;
20639;SDS011;10479;53.524;9.846;2022-09-02T16:12:04;3.20;;;0.75;;
20639;SDS011;10479;53.524;9.846;2022-09-02T16:14:30;2.22;;;0.65;;
20639;SDS011;10479;53.524;9.846;2022-09-02T16:16:55;4.40;;;0.82;;
20639;SDS011;10479;53.524;9.846;2022-09-02T16:19:22;3.88;;;1.00;;
20639;SDS011;10479;53.524;9.846;2022-09-02T16:21:53;4.25;;;0.90;;
20639;SDS011;10479;53.524;9.846;2022-09-02T16:24:18;4.35;;;0.70;;
20639;SDS011;10479;53.524;9.846;2022-09-02T16:26:45;4.00;;;0.90;;
20639;SDS011;10479;53.524;9.846;2022-09-02T16:29:12;2.38;;;0.80;;
20639;SDS011;10479;53.524;9.846;2022-09-02T16:31:39;1.83;;;0.75;;
20639;SDS011;10479;53.524;9.846;2022-09-02T16:34:09;4.63;;;0.95;;
20639;SDS011;10479;53.524;9.846;2022-09-02T16:36:38;4.43;;;0.85;;
20639;SDS011;10479;53.524;9.846;2022-09-02T16:39:04;2.58;;;0.80;;
20639;SDS011;10479;53.524;9.846;2022-09-02T16:41:34;5.97;;;0.90;;
20639;SDS011;10479;53.524;9.846;2022-09-02T16:44:02;3.03;;;0.80;;
20639;SDS011;10479;53.524;9.846;2022-09-02T16:46:33;4.30;;;0.88;;
20639;SDS011;10479;53.524;9.846;2022-09-02T16:48:59;3.25;;;0.90;;
20639;SDS011;10479;53.524;9.846;2022-09-02T16:51:25;1.85;;;0.80;;
20639;SDS011;10479;53.524;9.846;2022-09-02T16:53:52;3.45;;;0.80;;
20639;SDS011;10479;53.524;9.846;2022-09-02T16:56:24;5.43;;;1.17;;
20639;SDS011;10479;53.524;9.846;2022-09-02T16:58:50;3.60;;;0.80;;
20639;SDS011;10479;53.524;9.846;2022-09-02T17:01:20;2.05;;;0.73;;
20639;SDS011;10479;53.524;9.846;2022-09-02T17:03:48;3.78;;;0.90;;
20639;SDS011;10479;53.524;9.846;2022-09-02T17:06:14;3.85;;;0.90;;
20639;SDS011;10479;53.524;9.846;2022-09-02T17:08:40;3.70;;;1.05;;
20639;SDS011;10479;53.524;9.846;2022-09-02T17:13:40;4.20;;;0.90;;
20639;SDS011;10479;53.524;9.846;2022-09-02T17:16:06;4.80;;;1.10;;
20639;SDS011;10479;53.524;9.846;2022-09-02T17:18:32;2.08;;;0.80;;
20639;SDS011;10479;53.524;9.846;2022-09-02T17:23:39;5.10;;;0.98;;
20639;SDS011;10479;53.524;9.846;2022-09-02T17:26:05;2.13;;;0.90;;
20639;SDS011;10479;53.524;9.846;2022-09-02T17:28:32;7.65;;;0.80;;
20639;SDS011;10479;53.524;9.846;2022-09-02T17:30:58;2.25;;;0.93;;
20639;SDS011;10479;53.524;9.846;2022-09-02T17:33:23;2.88;;;0.85;;
20639;SDS011;10479;53.524;9.846;2022-09-02T17:35:55;1.95;;;0.85;;
20639;SDS011;10479;53.524;9.846;2022-09-02T17:38:21;5.93;;;1.00;;
20639;SDS011;10479;53.524;9.846;2022-09-02T17:40:47;3.72;;;0.93;;
20639;SDS011;10479;53.524;9.846;2022-09-02T17:43:30;3.58;;;0.80;;
20639;SDS011;10479;53.524;9.846;2022-09-02T17:46:06;2.15;;;0.90;;
20639;SDS011;10479;53.524;9.846;2022-09-02T17:48:32;3.13;;;1.00;;
20639;SDS011;10479;53.524;9.846;2022-09-02T17:50:58;3.92;;;0.90;;
20639;SDS011;10479;53.524;9.846;2022-09-02T17:53:24;4.53;;;1.10;;
20639;SDS011;10479;53.524;9.846;2022-09-02T17:55:51;3.20;;;0.90;;
20639;SDS011;10479;53.524;9.846;2022-09-02T17:58:21;5.00;;;1.10;;
20639;SDS011;10479;53.524;9.846;2022-09-02T18:00:47;4.13;;;1.00;;
20639;SDS011;10479;53.524;9.846;2022-09-02T18:11:12;4.07;;;0.93;;
20639;SDS011;10479;53.524;9.846;2022-09-02T18:19:01;4.68;;;1.13;;
20639;SDS011;10479;53.524;9.846;2022-09-02T18:21:40;11.43;;;1.17;;
20639;SDS011;10479;53.524;9.846;2022-09-02T18:24:32;7.78;;;1.25;;
20639;SDS011;10479;53.524;9.846;2022-09-02T18:27:23;4.57;;;1.02;;
20639;SDS011;10479;53.524;9.846;2022-09-02T18:30:32;4.53;;;1.00;;
20639;SDS011;10479;53.524;9.846;2022-09-02T18:35:38;7.75;;;0.90;;